TimeEST,TemperatureF,Dew PointF,Humidity,Sea Level PressureIn,VisibilityMPH,Wind Direction,Wind SpeedMPH,Gust SpeedMPH,PrecipitationIn,Events,Conditions,WindDirDegrees,DateUTC
12:15 AM,25.5,24.8,97,30.48,10.0,Calm,Calm,-,N/A,,Clear,0,2013-01-19 05:15:00
12:35 AM,25.0,24.1,96,30.47,10.0,Calm,Calm,-,N/A,,Clear,0,2013-01-19 05:35:00
12:55 AM,25.7,24.8,96,30.47,10.0,Calm,Calm,-,N/A,,Clear,0,2013-01-19 05:55:00
1:15 AM,26.6,25.5,96,30.47,10.0,Calm,Calm,-,N/A,,Clear,0,2013-01-19 06:15:00
1:35 AM,26.4,25.3,96,30.46,10.0,Calm,Calm,-,N/A,,Clear,0,2013-01-19 06:35:00
1:55 AM,27.5,26.1,94,30.46,10.0,Calm,Calm,-,N/A,,Clear,0,2013-01-19 06:55:00
2:15 AM,27.5,26.1,94,30.46,10.0,Calm,Calm,-,N/A,,Clear,0,2013-01-19 07:15:00
2:35 AM,25.5,23.9,94,30.46,10.0,Calm,Calm,-,N/A,,Clear,0,2013-01-19 07:35:00
2:55 AM,25.3,24.3,96,30.47,10.0,Calm,Calm,-,N/A,,Clear,0,2013-01-19 07:55:00
3:15 AM,24.8,23.9,96,30.46,10.0,Calm,Calm,-,N/A,,Clear,0,2013-01-19 08:15:00
3:35 AM,23.9,23.0,96,30.46,10.0,Calm,Calm,-,N/A,,Clear,0,2013-01-19 08:35:00
3:55 AM,26.1,25.2,96,30.46,10.0,Calm,Calm,-,N/A,,Clear,0,2013-01-19 08:55:00
4:15 AM,24.6,23.7,96,30.45,10.0,Calm,Calm,-,N/A,,Clear,0,2013-01-19 09:15:00
4:35 AM,24.6,23.7,96,30.46,10.0,Calm,Calm,-,N/A,,Clear,0,2013-01-19 09:35:00
4:55 AM,24.8,23.9,96,30.45,10.0,Calm,Calm,-,N/A,,Clear,0,2013-01-19 09:55:00
5:15 AM,23.9,22.8,96,30.45,10.0,Calm,Calm,-,N/A,,Clear,0,2013-01-19 10:15:00
5:35 AM,25.2,23.9,95,30.46,10.0,Calm,Calm,-,N/A,,Clear,0,2013-01-19 10:35:00
5:55 AM,23.9,22.8,96,30.46,10.0,SSW,3.5,-,N/A,,Clear,200,2013-01-19 10:55:00
6:15 AM,25.7,24.8,96,30.46,10.0,SSW,3.5,-,N/A,,Clear,210,2013-01-19 11:15:00
6:35 AM,25.7,24.4,95,30.46,10.0,SSW,4.6,-,N/A,,Clear,200,2013-01-19 11:35:00
6:55 AM,26.4,24.8,94,30.45,10.0,SW,3.5,-,N/A,,Clear,220,2013-01-19 11:55:00
8:15 AM,28.8,26.1,90,30.44,10.0,SW,3.5,-,N/A,,Clear,230,2013-01-19 13:15:00
8:55 AM,31.8,27.5,84,30.44,10.0,SW,5.8,-,N/A,,Clear,230,2013-01-19 13:55:00
9:15 AM,32.5,28.0,83,30.44,10.0,SW,5.8,-,N/A,,Clear,220,2013-01-19 14:15:00
9:35 AM,33.8,28.9,82,30.44,10.0,SW,8.1,-,N/A,,Clear,230,2013-01-19 14:35:00
10:35 AM,39.7,28.2,63,30.42,10.0,SW,5.8,-,N/A,,Clear,230,2013-01-19 15:35:00
10:55 AM,41.2,28.2,60,30.42,10.0,WSW,8.1,-,N/A,,Clear,240,2013-01-19 15:55:00
11:15 AM,42.4,28.2,57,30.41,10.0,SW,9.2,-,N/A,,Clear,220,2013-01-19 16:15:00
11:35 AM,43.7,29.1,57,30.39,10.0,SW,6.9,-,N/A,,Clear,230,2013-01-19 16:35:00
12:15 PM,45.9,28.2,50,30.36,10.0,SW,6.9,-,N/A,,Clear,220,2013-01-19 17:15:00
12:35 PM,46.9,27.7,47,30.33,10.0,SW,8.1,-,N/A,,Clear,220,2013-01-19 17:35:00
12:55 PM,47.7,28.8,48,30.32,10.0,SSW,8.1,-,N/A,,Clear,210,2013-01-19 17:55:00
1:15 PM,48.2,28.4,46,30.31,10.0,SW,6.9,-,N/A,,Clear,220,2013-01-19 18:15:00
1:35 PM,49.1,28.2,44,30.29,10.0,SW,10.4,-,N/A,,Clear,220,2013-01-19 18:35:00
1:55 PM,49.5,27.5,43,30.28,10.0,SSW,6.9,-,N/A,,Clear,200,2013-01-19 18:55:00
2:15 PM,50.2,28.2,43,30.26,10.0,SW,5.8,-,N/A,,Clear,220,2013-01-19 19:15:00
2:35 PM,50.2,28.8,44,30.26,10.0,SW,8.1,-,N/A,,Clear,230,2013-01-19 19:35:00
2:55 PM,50.5,28.6,43,30.25,10.0,SSW,9.2,-,N/A,,Clear,200,2013-01-19 19:55:00
3:15 PM,50.7,28.4,42,30.24,10.0,SW,8.1,-,N/A,,Clear,220,2013-01-19 20:15:00
3:35 PM,51.3,27.0,39,30.23,10.0,WSW,10.4,-,N/A,,Clear,240,2013-01-19 20:35:00
3:55 PM,51.3,27.9,40,30.22,10.0,SW,5.8,-,N/A,,Clear,220,2013-01-19 20:55:00
4:15 PM,51.1,28.0,41,30.22,10.0,SSW,5.8,-,N/A,,Clear,210,2013-01-19 21:15:00
4:35 PM,51.1,27.3,40,30.21,10.0,SSW,6.9,-,N/A,,Clear,200,2013-01-19 21:35:00
4:55 PM,50.4,26.8,40,30.21,10.0,SW,5.8,-,N/A,,Clear,220,2013-01-19 21:55:00
5:15 PM,49.1,27.1,43,30.20,10.0,SSW,4.6,-,N/A,,Clear,210,2013-01-19 22:15:00
5:35 PM,47.3,28.0,47,30.20,10.0,Calm,Calm,-,N/A,,Clear,0,2013-01-19 22:35:00
5:55 PM,39.9,29.8,67,30.20,10.0,Calm,Calm,-,N/A,,Clear,0,2013-01-19 22:55:00
6:15 PM,37.8,30.2,74,30.20,10.0,Calm,Calm,-,N/A,,Clear,0,2013-01-19 23:15:00
6:35 PM,38.5,30.4,73,30.20,10.0,Calm,Calm,-,N/A,,Clear,0,2013-01-19 23:35:00
6:55 PM,34.5,30.6,85,30.20,10.0,Calm,Calm,-,N/A,,Clear,0,2013-01-19 23:55:00
7:15 PM,35.2,31.1,85,30.20,10.0,Calm,Calm,-,N/A,,Clear,0,2013-01-20 00:15:00
7:35 PM,34.3,29.8,84,30.20,10.0,Calm,Calm,-,N/A,,Clear,0,2013-01-20 00:35:00
7:55 PM,36.3,30.0,78,30.20,10.0,Calm,Calm,-,N/A,,Clear,0,2013-01-20 00:55:00
8:15 PM,35.8,29.5,78,30.20,10.0,SSW,3.5,-,N/A,,Clear,210,2013-01-20 01:15:00
8:35 PM,34.3,29.7,83,30.20,10.0,Calm,Calm,-,N/A,,Clear,0,2013-01-20 01:35:00
8:55 PM,31.6,28.6,88,30.19,10.0,Calm,Calm,-,N/A,,Clear,0,2013-01-20 01:55:00
9:15 PM,34.2,28.9,81,30.19,10.0,Calm,Calm,-,N/A,,Clear,0,2013-01-20 02:15:00
9:35 PM,33.1,28.9,85,30.18,10.0,Calm,Calm,-,N/A,,Clear,0,2013-01-20 02:35:00
9:55 PM,32.0,28.4,87,30.17,10.0,Calm,Calm,-,N/A,,Clear,0,2013-01-20 02:55:00
10:15 PM,37.6,29.3,72,30.16,10.0,SW,4.6,-,N/A,,Clear,230,2013-01-20 03:15:00
10:35 PM,34.9,28.8,78,30.16,10.0,Calm,Calm,-,N/A,,Clear,0,2013-01-20 03:35:00
10:55 PM,36.9,29.3,74,30.14,10.0,WSW,3.5,-,N/A,,Clear,240,2013-01-20 03:55:00
11:15 PM,36.3,28.9,75,30.14,10.0,SW,4.6,-,N/A,,Clear,230,2013-01-20 04:15:00
11:35 PM,37.4,28.6,70,30.13,10.0,WSW,4.6,-,N/A,,Clear,240,2013-01-20 04:35:00